createdAt,value
2023-03-10T00:00:41.216Z,70.44
2023-03-10T00:03:09.971Z,70.33
2023-03-10T00:05:38.388Z,70.13
2023-03-10T00:08:06.417Z,71.17
2023-03-10T00:10:34.197Z,70.79
2023-03-10T00:13:03.810Z,71.43
2023-03-10T00:15:31.979Z,70.94
2023-03-10T00:17:59.594Z,71.01
2023-03-10T00:20:27.519Z,70.98
2023-03-10T00:22:55.075Z,71.39
2023-03-10T00:25:23.380Z,71.96
2023-03-10T00:27:52.737Z,72.08
2023-03-10T00:30:20.516Z,71.37
2023-03-10T00:32:50.411Z,71.88
2023-03-10T00:35:18.165Z,72.66
2023-03-10T00:37:47.425Z,71.56
2023-03-10T00:40:16.378Z,71.64
2023-03-10T00:42:45.010Z,71.45
2023-03-10T00:45:12.688Z,71.90
2023-03-10T00:47:43.041Z,71.71
2023-03-10T00:50:11.400Z,70.93
2023-03-10T00:52:38.929Z,71.94
2023-03-10T00:55:07.078Z,72.55
2023-03-10T00:57:54.764Z,71.88
2023-03-10T01:00:23.678Z,72.19
2023-03-10T01:02:53.062Z,72.58
2023-03-10T01:05:21.488Z,71.88
2023-03-10T01:07:49.563Z,71.93
2023-03-10T01:10:18.354Z,72.31
2023-03-10T01:12:50.398Z,73.06
2023-03-10T01:15:18.045Z,73.42
2023-03-10T01:17:45.640Z,72.66
2023-03-10T01:20:15.330Z,72.34
2023-03-10T01:22:43.516Z,72.75
2023-03-10T01:25:20.267Z,73.07
2023-03-10T01:27:48.710Z,73.86
2023-03-10T01:30:16.376Z,73.58
2023-03-10T01:32:45.194Z,73.73
2023-03-10T01:35:12.938Z,74.77
2023-03-10T01:37:42.394Z,75.78
2023-03-10T01:40:16.463Z,75.46
2023-03-10T01:42:45.013Z,75.99
2023-03-10T01:45:15.777Z,75.28
2023-03-10T01:47:43.906Z,75.10
2023-03-10T01:50:16.546Z,76.25
2023-03-10T01:52:45.384Z,76.28
2023-03-10T01:55:19.051Z,76.10
2023-03-10T01:57:52.763Z,77.18
2023-03-10T02:00:21.056Z,77.59
2023-03-10T02:02:53.357Z,77.12
2023-03-10T02:05:21.580Z,77.46
2023-03-10T02:07:50.498Z,77.08
2023-03-10T02:10:18.686Z,76.98
2023-03-10T02:12:49.649Z,78.07
2023-03-10T02:15:17.565Z,78.32
2023-03-10T02:17:46.194Z,77.30
2023-03-10T02:20:21.737Z,76.10
2023-03-10T02:22:49.975Z,76.32
2023-03-10T02:25:51.773Z,76.40
2023-03-10T02:28:23.255Z,77.67
2023-03-10T02:30:51.965Z,77.78
2023-03-10T02:33:24.044Z,77.66
2023-03-10T02:35:51.853Z,77.81
2023-03-10T02:38:24.039Z,77.01
2023-03-10T02:40:52.455Z,77.00
2023-03-10T02:43:28.226Z,78.49
2023-03-10T02:46:03.716Z,78.88
2023-03-10T02:48:34.508Z,79.71
2023-03-10T02:51:06.592Z,77.53
2023-03-10T02:53:34.275Z,78.20
2023-03-10T02:56:01.963Z,78.44
2023-03-10T02:58:33.437Z,77.88
2023-03-10T03:01:05.474Z,77.41
2023-03-10T03:03:37.795Z,77.87
2023-03-10T03:06:05.749Z,77.46
2023-03-10T03:08:35.566Z,77.72
2023-03-10T03:11:05.982Z,78.94
2023-03-10T03:13:33.982Z,79.10
2023-03-10T03:16:02.673Z,79.86
2023-03-10T03:18:31.437Z,78.51
2023-03-10T03:21:04.410Z,80.56
2023-03-10T03:23:36.314Z,80.04
2023-03-10T03:26:05.025Z,80.48
2023-03-10T03:28:33.414Z,80.64
2023-03-10T03:31:02.188Z,79.40
2023-03-10T03:33:38.205Z,80.50
2023-03-10T03:36:06.242Z,80.15
2023-03-10T03:38:35.001Z,79.43
2023-03-10T03:41:03.180Z,79.86
2023-03-10T03:43:31.462Z,79.44
2023-03-10T03:46:05.546Z,80.17
2023-03-10T03:48:35.017Z,80.45
2023-03-10T03:51:05.379Z,80.81
2023-03-10T03:53:38.570Z,79.14
2023-03-10T03:56:06.798Z,78.68
2023-03-10T03:58:38.573Z,79.54
2023-03-10T04:01:07.115Z,79.02
2023-03-10T04:03:41.343Z,79.45
2023-03-10T04:06:12.438Z,78.59
2023-03-10T04:08:42.238Z,78.34
2023-03-10T04:11:10.080Z,79.40
2023-03-10T04:13:46.365Z,78.08
2023-03-10T04:16:14.834Z,78.93
2023-03-10T04:18:45.055Z,78.59
2023-03-10T04:21:15.184Z,78.54
2023-03-10T04:23:44.026Z,78.86
2023-03-10T04:26:15.452Z,77.96
2023-03-10T04:28:43.102Z,78.19
2023-03-10T04:31:16.939Z,78.73
2023-03-10T04:33:50.009Z,79.07
2023-03-10T04:36:18.713Z,77.95
2023-03-10T04:38:52.674Z,77.00
2023-03-10T04:41:23.142Z,77.05
2023-03-10T04:43:55.980Z,76.78
2023-03-10T04:46:24.022Z,77.44
2023-03-10T04:48:53.198Z,77.60
2023-03-10T04:51:20.784Z,77.26
2023-03-10T04:53:51.508Z,76.74
2023-03-10T04:56:21.428Z,76.03
2023-03-10T04:58:49.398Z,76.85
2023-03-10T05:01:17.673Z,75.88
2023-03-10T05:04:03.529Z,75.58
2023-03-10T05:06:31.766Z,75.81
2023-03-10T05:09:19.706Z,74.64
2023-03-10T05:11:48.136Z,75.97
2023-03-10T05:14:19.485Z,75.33
2023-03-10T05:16:48.765Z,74.96
2023-03-10T05:19:17.389Z,75.28
2023-03-10T05:21:49.381Z,77.30
2023-03-10T05:24:17.327Z,75.95
2023-03-10T05:26:45.152Z,74.42
2023-03-10T05:29:13.585Z,75.81
2023-03-10T05:31:49.662Z,74.73
2023-03-10T05:34:25.541Z,75.15
2023-03-10T05:36:56.581Z,75.13
2023-03-10T05:39:24.336Z,75.51
2023-03-10T05:41:55.154Z,74.89
2023-03-10T05:44:25.910Z,74.40
2023-03-10T05:46:54.149Z,75.84
2023-03-10T05:49:22.065Z,76.14
2023-03-10T05:51:50.050Z,74.95
2023-03-10T05:54:19.061Z,75.71
2023-03-10T05:56:47.258Z,76.39
2023-03-10T05:59:14.939Z,75.11
2023-03-10T06:01:43.459Z,74.57
2023-03-10T06:04:11.364Z,74.44
2023-03-10T06:06:39.954Z,75.23
2023-03-10T06:09:08.488Z,74.09
2023-03-10T06:11:41.692Z,73.38
2023-03-10T06:14:10.332Z,74.84
2023-03-10T06:16:40.286Z,74.42
2023-03-10T06:19:11.233Z,73.81
2023-03-10T06:21:38.821Z,73.50
2023-03-10T06:24:06.706Z,73.12
2023-03-10T06:26:34.950Z,72.52
2023-03-10T06:29:02.601Z,72.09
2023-03-10T06:31:34.303Z,72.31
2023-03-10T06:34:04.560Z,72.10
2023-03-10T06:36:33.050Z,72.22
2023-03-10T06:39:00.691Z,71.27
2023-03-10T06:41:28.418Z,71.14
2023-03-10T06:43:56.159Z,72.14
2023-03-10T06:46:25.727Z,71.35
2023-03-10T06:48:54.181Z,71.57
2023-03-10T06:51:22.449Z,70.82
2023-03-10T06:53:51.940Z,69.68
2023-03-10T06:56:20.910Z,68.61
2023-03-10T06:58:49.853Z,69.03
2023-03-10T07:01:25.740Z,69.01
2023-03-10T07:03:53.972Z,69.06
2023-03-10T07:06:23.857Z,68.13
2023-03-10T07:09:11.335Z,67.30
2023-03-10T07:11:39.889Z,67.03
2023-03-10T07:14:07.993Z,66.56
2023-03-10T07:16:36.221Z,67.32
2023-03-10T07:19:03.931Z,67.30
2023-03-10T07:21:36.402Z,66.68
2023-03-10T07:24:05.332Z,65.64
2023-03-10T07:26:33.155Z,65.87
2023-03-10T07:29:02.749Z,64.94
2023-03-10T07:31:30.970Z,65.48
2023-03-10T07:33:59.673Z,66.55
2023-03-10T07:36:27.758Z,64.81
2023-03-10T07:38:55.735Z,65.24
2023-03-10T07:41:23.566Z,65.73
2023-03-10T07:43:52.840Z,65.83
2023-03-10T07:46:21.063Z,64.46
2023-03-10T07:48:48.732Z,64.59
2023-03-10T07:51:16.323Z,65.15
2023-03-10T07:53:43.946Z,64.68
2023-03-10T07:56:13.039Z,64.64
2023-03-10T07:58:42.063Z,63.38
2023-03-10T08:01:21.237Z,64.01
2023-03-10T08:03:49.020Z,63.38
2023-03-10T08:06:24.193Z,64.92
2023-03-10T08:08:53.315Z,64.01
2023-03-10T08:11:21.534Z,62.29
2023-03-10T08:13:49.302Z,63.48
2023-03-10T08:16:18.167Z,61.83
2023-03-10T08:18:45.752Z,62.94
2023-03-10T08:21:13.269Z,62.69
2023-03-10T08:23:45.039Z,63.43
2023-03-10T08:26:14.972Z,63.47
2023-03-10T08:28:42.763Z,64.55
2023-03-10T08:31:14.271Z,64.38
2023-03-10T08:33:43.626Z,64.03
2023-03-10T08:36:20.088Z,63.32
2023-03-10T08:38:49.482Z,64.14
2023-03-10T08:41:16.984Z,63.53
2023-03-10T08:43:48.505Z,63.60
2023-03-10T08:46:18.429Z,63.47
2023-03-10T08:48:46.131Z,63.39
2023-03-10T08:51:15.965Z,61.70
2023-03-10T08:53:44.881Z,62.92
2023-03-10T08:56:12.758Z,63.78
2023-03-10T08:58:41.020Z,63.22
2023-03-10T09:01:10.944Z,64.09
2023-03-10T09:03:39.857Z,63.28
2023-03-10T09:06:08.594Z,64.74
2023-03-10T09:08:36.629Z,64.15
2023-03-10T09:11:04.352Z,63.83
2023-03-10T09:13:31.948Z,63.46
2023-03-10T09:16:00.014Z,65.58
2023-03-10T09:18:29.534Z,64.87
2023-03-10T09:20:57.393Z,64.14
2023-03-10T09:23:25.622Z,63.90
2023-03-10T09:25:53.352Z,63.80
2023-03-10T09:28:21.222Z,63.44
2023-03-10T09:30:48.956Z,63.61
2023-03-10T09:33:19.106Z,61.05
2023-03-10T09:35:57.496Z,61.52
2023-03-10T09:38:33.054Z,60.86
2023-03-10T09:41:19.182Z,60.46
2023-03-10T09:44:07.846Z,61.08
2023-03-10T09:46:46.448Z,60.93
2023-03-10T09:49:30.223Z,59.12
2023-03-10T09:51:57.856Z,58.44
2023-03-10T09:54:44.441Z,57.88
2023-03-10T09:57:17.025Z,58.56
2023-03-10T09:59:50.830Z,57.29
2023-03-10T10:02:43.147Z,56.14
2023-03-10T10:05:20.889Z,56.76
2023-03-10T10:07:55.458Z,55.96
2023-03-10T10:10:36.687Z,55.24
2023-03-10T10:13:13.691Z,54.61
2023-03-10T10:15:50.080Z,56.22
2023-03-10T10:18:24.979Z,55.95
2023-03-10T10:20:59.328Z,55.48
2023-03-10T10:23:37.732Z,54.85
2023-03-10T10:26:24.762Z,53.94
2023-03-10T10:28:59.458Z,56.02
2023-03-10T10:31:29.142Z,58.26
2023-03-10T10:34:22.072Z,58.27
2023-03-10T10:36:52.216Z,57.38
2023-03-10T10:39:58.831Z,59.67
2023-03-10T10:42:28.019Z,59.26
2023-03-10T10:45:05.080Z,60.46
2023-03-10T10:47:33.712Z,60.68
2023-03-10T10:50:18.427Z,60.68
2023-03-10T10:52:51.766Z,58.75
2023-03-10T10:55:27.476Z,58.15
2023-03-10T10:58:01.464Z,60.01
2023-03-10T11:00:33.521Z,59.46
2023-03-10T11:03:41.184Z,58.87
2023-03-10T11:06:18.513Z,57.79
2023-03-10T11:08:53.414Z,57.96
2023-03-10T11:11:53.637Z,57.66
2023-03-10T11:14:45.267Z,56.45
2023-03-10T11:17:31.717Z,57.14
2023-03-10T11:19:59.388Z,56.27
2023-03-10T11:22:40.076Z,55.55
2023-03-10T11:25:15.430Z,56.54
2023-03-10T11:27:52.710Z,56.97
2023-03-10T11:30:33.434Z,56.10
2023-03-10T11:33:23.840Z,56.00
2023-03-10T11:35:59.808Z,57.05
2023-03-10T11:38:42.404Z,57.17
2023-03-10T11:41:22.149Z,57.23
2023-03-10T11:44:13.728Z,57.65
2023-03-10T11:46:49.030Z,57.77
2023-03-10T11:49:16.979Z,57.97
2023-03-10T11:52:05.543Z,59.02
2023-03-10T11:54:35.281Z,57.88
2023-03-10T11:57:22.430Z,57.86
2023-03-10T11:59:58.083Z,58.44
2023-03-10T12:02:28.728Z,59.36
2023-03-10T12:05:06.970Z,58.77
2023-03-10T12:07:44.498Z,59.10
2023-03-10T12:10:12.200Z,57.91
2023-03-10T12:12:47.776Z,55.57
2023-03-10T12:15:30.573Z,55.38
2023-03-10T12:18:55.602Z,55.84
2023-03-10T12:21:36.194Z,57.45
2023-03-10T12:24:04.338Z,56.22
2023-03-10T12:26:37.935Z,53.91
2023-03-10T12:29:20.668Z,54.79
2023-03-10T12:31:54.024Z,53.87
2023-03-10T12:34:23.052Z,54.05
2023-03-10T12:36:54.803Z,55.12
2023-03-10T12:39:28.365Z,57.80
2023-03-10T12:41:56.298Z,57.42
2023-03-10T12:44:43.284Z,58.81
2023-03-10T12:47:51.499Z,60.19
2023-03-10T12:50:43.680Z,60.88
2023-03-10T12:53:11.127Z,61.05
2023-03-10T12:55:43.693Z,60.58
2023-03-10T12:58:19.423Z,61.21
2023-03-10T13:00:50.790Z,60.15
2023-03-10T13:03:38.590Z,59.85
2023-03-10T13:06:15.025Z,59.83
2023-03-10T13:08:46.546Z,58.79
2023-03-10T13:11:30.285Z,58.03
2023-03-10T13:13:59.685Z,58.07
2023-03-10T13:16:27.380Z,58.18
2023-03-10T13:19:00.661Z,56.81
2023-03-10T13:21:36.658Z,57.61
2023-03-10T13:24:36.873Z,56.93
2023-03-10T13:27:05.383Z,56.62
2023-03-10T13:29:33.546Z,57.42
2023-03-10T13:32:01.858Z,58.60
2023-03-10T13:34:32.620Z,58.69
2023-03-10T13:37:10.945Z,60.12
2023-03-10T13:39:39.150Z,59.43
2023-03-10T13:42:37.139Z,59.20
2023-03-10T13:45:17.248Z,61.40
2023-03-10T13:47:44.841Z,61.27
2023-03-10T13:50:14.789Z,61.08
2023-03-10T13:52:54.889Z,61.21
2023-03-10T13:55:22.529Z,61.42
2023-03-10T13:57:50.438Z,62.46
2023-03-10T14:00:21.030Z,62.79
2023-03-10T14:02:49.868Z,62.76
2023-03-10T14:05:36.084Z,62.19
2023-03-10T14:08:03.809Z,62.51
2023-03-10T14:10:31.625Z,62.95
2023-03-10T14:13:00.373Z,63.83
2023-03-10T14:15:41.996Z,62.38
2023-03-10T14:18:34.874Z,62.21
2023-03-10T14:21:23.450Z,61.28
2023-03-10T14:23:51.995Z,60.96
2023-03-10T14:26:19.902Z,60.90
2023-03-10T14:28:47.683Z,60.21
2023-03-10T14:31:22.789Z,60.00
2023-03-10T14:33:51.087Z,60.03
2023-03-10T14:36:18.865Z,58.83
2023-03-10T14:38:49.204Z,60.12
2023-03-10T14:41:17.116Z,59.55
2023-03-10T14:43:44.744Z,58.42
2023-03-10T14:46:13.293Z,59.35
2023-03-10T14:48:42.121Z,60.49
2023-03-10T14:51:25.665Z,60.17
2023-03-10T14:54:00.749Z,60.62
2023-03-10T14:56:33.720Z,61.58
2023-03-10T14:59:02.726Z,61.92
2023-03-10T15:01:30.699Z,61.66
2023-03-10T15:03:58.497Z,61.27
2023-03-10T15:06:26.093Z,62.74
2023-03-10T15:08:55.683Z,63.75
2023-03-10T15:11:36.216Z,64.73
2023-03-10T15:14:11.064Z,65.45
2023-03-10T15:16:41.014Z,65.52
2023-03-10T15:19:22.930Z,66.23
2023-03-10T15:21:50.617Z,66.80
2023-03-10T15:24:18.440Z,66.47
2023-03-10T15:26:46.204Z,68.33
2023-03-10T15:29:16.201Z,67.71
2023-03-10T15:31:43.993Z,68.06
2023-03-10T15:34:11.761Z,68.92
2023-03-10T15:36:39.358Z,68.56
2023-03-10T15:39:07.400Z,69.96
2023-03-10T15:41:38.781Z,69.38
2023-03-10T15:44:06.934Z,68.51
2023-03-10T15:46:34.665Z,69.56
2023-03-10T15:49:03.600Z,69.23
2023-03-10T15:51:31.384Z,69.19
2023-03-10T15:53:59.489Z,69.27
2023-03-10T15:56:27.199Z,69.47
2023-03-10T15:58:56.083Z,70.06
2023-03-10T16:01:23.948Z,69.46
2023-03-10T16:03:51.801Z,70.98
2023-03-10T16:06:24.784Z,70.65
2023-03-10T16:08:53.506Z,71.84
2023-03-10T16:11:22.245Z,71.48
2023-03-10T16:13:50.418Z,71.47
2023-03-10T16:16:19.052Z,70.54
2023-03-10T16:18:47.025Z,70.49
2023-03-10T16:21:17.752Z,70.37
2023-03-10T16:23:46.725Z,70.37
2023-03-10T16:26:19.675Z,70.55
2023-03-10T16:28:55.302Z,70.74
2023-03-10T16:31:24.123Z,70.81
2023-03-10T16:33:52.903Z,71.15
2023-03-10T16:36:24.807Z,71.20
2023-03-10T16:38:55.616Z,71.13
2023-03-10T16:41:23.958Z,70.98
2023-03-10T16:43:51.914Z,70.49
2023-03-10T16:46:25.179Z,70.86
2023-03-10T16:48:55.808Z,71.85
2023-03-10T16:51:47.002Z,71.51
2023-03-10T16:54:22.002Z,71.75
2023-03-10T16:56:51.225Z,71.41
2023-03-10T16:59:21.778Z,71.26
2023-03-10T17:01:50.071Z,71.45
2023-03-10T17:04:18.018Z,71.78
2023-03-10T17:06:46.745Z,72.09
2023-03-10T17:09:14.598Z,71.91
2023-03-10T17:11:54.889Z,71.91
2023-03-10T17:14:23.246Z,71.97
2023-03-10T17:16:51.244Z,72.28
2023-03-10T17:19:20.771Z,71.98
2023-03-10T17:21:49.243Z,72.17
2023-03-10T17:24:18.840Z,72.23
2023-03-10T17:26:46.567Z,72.21
2023-03-10T17:29:14.290Z,72.13
2023-03-10T17:31:48.935Z,72.22
2023-03-10T17:34:16.650Z,72.33
2023-03-10T17:36:44.852Z,72.64
2023-03-10T17:39:18.145Z,72.94
2023-03-10T17:41:46.577Z,72.98
2023-03-10T17:44:20.086Z,73.03
2023-03-10T17:46:50.598Z,73.00
2023-03-10T17:49:20.195Z,73.23
2023-03-10T17:51:48.086Z,75.37
2023-03-10T17:54:17.862Z,75.09
2023-03-10T17:56:45.725Z,75.41
2023-03-10T17:59:14.452Z,75.31
2023-03-10T18:01:43.752Z,75.89
2023-03-10T18:04:11.673Z,77.13
2023-03-10T18:06:41.416Z,79.58
2023-03-10T18:09:28.876Z,79.93
2023-03-10T18:11:59.969Z,80.86
2023-03-10T18:14:28.214Z,79.65
2023-03-10T18:16:55.784Z,78.97
2023-03-10T18:19:23.404Z,78.46
2023-03-10T18:21:52.568Z,77.94
2023-03-10T18:24:22.553Z,77.69
2023-03-10T18:26:50.556Z,77.29
2023-03-10T18:29:18.424Z,76.91
2023-03-10T18:31:49.969Z,77.37
2023-03-10T18:34:20.434Z,77.08
2023-03-10T18:36:48.014Z,77.61
2023-03-10T18:39:15.642Z,77.25
2023-03-10T18:41:43.273Z,76.69
2023-03-10T18:44:10.803Z,77.02
2023-03-10T18:46:39.075Z,76.87
2023-03-10T18:49:07.432Z,76.93
2023-03-10T18:51:34.993Z,76.67
2023-03-10T18:54:02.711Z,76.73
2023-03-10T18:56:37.492Z,77.03
2023-03-10T18:59:05.132Z,76.38
2023-03-10T19:01:32.806Z,76.68
2023-03-10T19:04:00.964Z,76.39
2023-03-10T19:06:32.770Z,76.77
2023-03-10T19:09:01.520Z,76.94
2023-03-10T19:11:35.371Z,77.78
2023-03-10T19:14:05.568Z,78.50
2023-03-10T19:16:35.711Z,78.13
2023-03-10T19:19:10.646Z,77.67
2023-03-10T19:21:39.406Z,77.52
2023-03-10T19:24:07.391Z,77.36
2023-03-10T19:26:35.422Z,77.33
2023-03-10T19:29:03.017Z,77.43
2023-03-10T19:31:34.367Z,77.06
2023-03-10T19:34:02.720Z,77.24
2023-03-10T19:36:30.326Z,76.52
2023-03-10T19:38:59.274Z,76.98
2023-03-10T19:41:27.098Z,77.41
2023-03-10T19:43:58.062Z,77.38
2023-03-10T19:46:25.743Z,77.49
2023-03-10T19:48:53.276Z,77.82
2023-03-10T19:51:25.648Z,77.65
2023-03-10T19:53:53.947Z,77.18
2023-03-10T19:56:21.760Z,77.54
2023-03-10T19:58:51.423Z,77.67
2023-03-10T20:01:25.086Z,77.78
2023-03-10T20:03:54.262Z,77.63
2023-03-10T20:06:21.919Z,77.59
2023-03-10T20:08:49.673Z,77.64
2023-03-10T20:11:19.561Z,77.41
2023-03-10T20:13:47.388Z,77.39
2023-03-10T20:16:16.426Z,77.16
2023-03-10T20:18:46.299Z,77.22
2023-03-10T20:21:14.156Z,77.29
2023-03-10T20:23:41.806Z,77.59
2023-03-10T20:26:10.043Z,77.28
2023-03-10T20:28:39.469Z,77.17
2023-03-10T20:31:07.527Z,77.20
2023-03-10T20:33:35.985Z,77.46
2023-03-10T20:36:13.951Z,77.37
2023-03-10T20:38:45.131Z,77.56
2023-03-10T20:41:13.495Z,77.74
2023-03-10T20:43:41.640Z,77.98
2023-03-10T20:46:10.093Z,78.47
2023-03-10T20:48:38.344Z,78.62
2023-03-10T20:51:06.328Z,78.45
2023-03-10T20:53:39.252Z,77.76
2023-03-10T20:56:08.917Z,77.79
2023-03-10T20:59:01.913Z,77.62
2023-03-10T21:01:30.243Z,77.84
2023-03-10T21:03:58.709Z,77.97
2023-03-10T21:06:27.012Z,78.79
2023-03-10T21:09:06.055Z,78.14
2023-03-10T21:11:34.249Z,78.22
2023-03-10T21:14:02.029Z,78.45
2023-03-10T21:16:29.914Z,78.65
2023-03-10T21:18:58.342Z,78.60
2023-03-10T21:21:25.948Z,78.62
2023-03-10T21:23:53.541Z,78.17
2023-03-10T21:26:21.482Z,78.13
2023-03-10T21:28:49.413Z,78.22
2023-03-10T21:31:17.234Z,78.89
2023-03-10T21:33:45.138Z,78.98
2023-03-10T21:36:22.983Z,79.49
2023-03-10T21:38:52.801Z,79.74
2023-03-10T21:41:25.382Z,80.12
2023-03-10T21:43:54.158Z,80.42
2023-03-10T21:46:22.018Z,79.87
2023-03-10T21:48:49.987Z,80.41
2023-03-10T21:51:19.350Z,80.84
2023-03-10T21:53:47.394Z,80.67
2023-03-10T21:56:17.896Z,80.25
2023-03-10T21:58:46.037Z,79.96
2023-03-10T22:01:19.094Z,79.71
2023-03-10T22:03:46.924Z,79.86
2023-03-10T22:06:14.885Z,79.46
2023-03-10T22:08:42.624Z,79.41
2023-03-10T22:11:12.234Z,79.29
2023-03-10T22:13:40.965Z,79.27
2023-03-10T22:16:10.818Z,79.02
2023-03-10T22:18:41.588Z,79.23
2023-03-10T22:21:09.126Z,79.08
2023-03-10T22:23:36.658Z,78.91
2023-03-10T22:26:04.460Z,78.84
2023-03-10T22:28:32.431Z,78.51
2023-03-10T22:31:00.391Z,78.75
2023-03-10T22:33:28.690Z,79.18
2023-03-10T22:35:56.335Z,79.01
2023-03-10T22:38:24.038Z,78.62
2023-03-10T22:40:51.689Z,78.44
2023-03-10T22:43:19.561Z,78.92
2023-03-10T22:45:47.205Z,79.34
2023-03-10T22:48:14.913Z,79.31
2023-03-10T22:50:46.913Z,79.58
2023-03-10T22:53:16.243Z,79.60
2023-03-10T22:55:46.532Z,79.63
2023-03-10T22:58:16.402Z,79.77
2023-03-10T23:00:44.717Z,80.16
2023-03-10T23:03:14.059Z,80.21
2023-03-10T23:05:42.080Z,80.52
2023-03-10T23:08:13.059Z,80.96
2023-03-10T23:10:41.153Z,80.85
2023-03-10T23:13:12.440Z,81.14
2023-03-10T23:15:40.004Z,80.76
2023-03-10T23:18:08.021Z,80.70
2023-03-10T23:20:43.837Z,81.21
2023-03-10T23:23:12.446Z,80.96
2023-03-10T23:25:41.611Z,81.19
2023-03-10T23:28:10.877Z,81.05
2023-03-10T23:30:39.905Z,80.92
2023-03-10T23:33:07.914Z,81.17
2023-03-10T23:35:36.490Z,81.02
2023-03-10T23:38:05.669Z,81.35
2023-03-10T23:40:35.030Z,81.27
2023-03-10T23:43:04.382Z,81.73
2023-03-10T23:45:33.442Z,81.55
2023-03-10T23:48:01.697Z,81.41
2023-03-10T23:50:31.246Z,81.57
2023-03-10T23:52:59.116Z,81.71
2023-03-10T23:55:28.953Z,81.66
2023-03-10T23:57:56.711Z,81.80
